Time;durP1;ratioP1;P1;durP2;ratioP2;P2;SDS_P1;SDS_P2;PMS_P1;PMS_P2;Temp;Humidity;BMP_temperature;BMP_pressure;BME280_temperature;BME280_humidity;BME280_pressure;Samples;Min_cycle;Max_cycle;Signal;HPM_P1;HPM_P2
2023/06/06 00:03:55;;;;;;;6.97;1.45;;;22.00;55.90;;;;;;8430666;28;20477;-55
2023/06/06 00:07:56;;;;;;;11.10;1.50;;;22.00;55.70;;;;;;8400067;28;20098;-56
2023/06/06 00:11:57;;;;;;;9.27;2.47;;;22.00;55.90;;;;;;8398956;28;20117;-56
2023/06/06 00:15:58;;;;;;;3.60;1.10;;;21.90;55.80;;;;;;8398449;28;20032;-56
2023/06/06 00:19:58;;;;;;;4.28;1.13;;;21.90;55.90;;;;;;8398291;28;20465;-56
2023/06/06 00:24:02;;;;;;;7.13;1.10;;;21.90;55.90;;;;;;8398659;28;20020;-56
2023/06/06 00:28:03;;;;;;;6.03;1.33;;;21.80;55.80;;;;;;8397987;28;20482;-56
2023/06/06 00:32:04;;;;;;;4.80;1.05;;;21.90;55.70;;;;;;8413841;28;20397;-56
2023/06/06 00:36:05;;;;;;;1.40;1.00;;;21.80;55.70;;;;;;8397795;28;20060;-56
2023/06/06 00:40:06;;;;;;;2.05;1.15;;;21.80;55.70;;;;;;8398077;28;20028;-56
2023/06/06 00:44:07;;;;;;;5.05;1.00;;;21.80;55.70;;;;;;8397619;28;20028;-56
2023/06/06 00:48:08;;;;;;;2.88;1.02;;;21.80;55.60;;;;;;8397751;28;20033;-56
2023/06/06 00:52:10;;;;;;;1.38;0.98;;;21.70;55.60;;;;;;8397313;28;20107;-56
2023/06/06 00:56:13;;;;;;;1.55;0.98;;;21.70;55.60;;;;;;8397410;28;20025;-56
2023/06/06 01:00:15;;;;;;;3.95;1.00;;;21.70;55.60;;;;;;8379357;28;20028;-56
2023/06/06 01:04:17;;;;;;;5.70;1.10;;;21.70;55.60;;;;;;8397775;28;20020;-56
2023/06/06 01:08:17;;;;;;;1.15;0.80;;;21.70;55.50;;;;;;8430624;28;20044;-56
2023/06/06 01:12:23;;;;;;;2.00;0.95;;;21.70;55.50;;;;;;8456409;28;20110;-56
2023/06/06 01:16:26;;;;;;;2.63;1.02;;;21.70;55.50;;;;;;8463277;28;20040;-56
2023/06/06 01:20:28;;;;;;;2.42;1.00;;;21.70;55.60;;;;;;8463959;28;20051;-56
2023/06/06 01:24:29;;;;;;;1.98;0.82;;;21.70;55.50;;;;;;8463723;28;20027;-56
2023/06/06 01:28:30;;;;;;;2.50;0.93;;;21.70;55.50;;;;;;8463446;28;20411;-56
2023/06/06 01:32:57;;;;;;;1.98;0.98;;;21.70;55.50;;;;;;8463502;28;20020;-56
2023/06/06 01:37:35;;;;;;;2.50;0.88;;;21.70;55.50;;;;;;8463273;28;20028;-56
2023/06/06 01:41:38;;;;;;;4.32;0.90;;;21.70;55.50;;;;;;8443188;28;20489;-56
2023/06/06 01:45:40;;;;;;;2.03;1.08;;;21.70;55.50;;;;;;8429282;28;20105;-56
2023/06/06 01:49:41;;;;;;;2.05;0.90;;;21.70;55.50;;;;;;8429175;28;20032;-57
2023/06/06 01:53:42;;;;;;;;;;;21.70;55.40;;;;;;8411423;28;20065;-56
2023/06/06 01:57:42;;;;;;;3.07;1.23;;;21.60;55.40;;;;;;8428952;28;20024;-56
2023/06/06 02:01:43;;;;;;;1.42;0.82;;;21.70;55.40;;;;;;8428836;28;20027;-56
2023/06/06 02:05:44;;;;;;;1.05;0.95;;;21.60;55.40;;;;;;8428529;28;20046;-56
2023/06/06 02:09:45;;;;;;;0.93;0.82;;;21.60;55.50;;;;;;8428716;28;20409;-56
2023/06/06 02:13:47;;;;;;;2.38;1.08;;;21.70;55.50;;;;;;8428443;28;20541;-56
2023/06/06 02:17:48;;;;;;;1.63;0.82;;;21.70;55.50;;;;;;8428314;28;20123;-57
2023/06/06 02:21:51;;;;;;;2.45;1.20;;;21.70;55.50;;;;;;8428216;28;20020;-56
2023/06/06 02:25:53;;;;;;;2.92;1.13;;;21.70;55.50;;;;;;8426999;28;20153;-56
2023/06/06 02:29:53;;;;;;;1.20;1.10;;;21.70;55.50;;;;;;8427876;28;20024;-56
2023/06/06 02:33:54;;;;;;;3.38;0.90;;;21.60;55.40;;;;;;8427831;28;20032;-56
2023/06/06 02:37:54;;;;;;;0.85;0.70;;;21.70;55.40;;;;;;8427678;28;20038;-57
2023/06/06 02:41:55;;;;;;;3.03;1.10;;;21.60;55.40;;;;;;8427977;28;20030;-56
2023/06/06 02:45:56;;;;;;;2.95;1.30;;;21.70;55.40;;;;;;8427470;28;20034;-56
2023/06/06 02:49:56;;;;;;;2.15;1.05;;;21.70;55.40;;;;;;8427496;28;20040;-56
2023/06/06 02:53:57;;;;;;;3.90;1.17;;;21.60;55.40;;;;;;8427204;28;20085;-56
2023/06/06 02:57:58;;;;;;;1.83;0.90;;;21.60;55.40;;;;;;8408858;28;20032;-56
2023/06/06 03:01:58;;;;;;;0.82;0.80;;;21.60;55.40;;;;;;8427035;28;20046;-56
2023/06/06 03:06:00;;;;;;;0.65;0.63;;;21.60;55.40;;;;;;8427091;28;20047;-56
2023/06/06 03:10:01;;;;;;;1.27;1.02;;;21.60;55.40;;;;;;8427197;28;20028;-56
2023/06/06 03:14:02;;;;;;;0.80;0.80;;;21.70;55.40;;;;;;8426595;28;20027;-56
2023/06/06 03:18:02;;;;;;;0.80;0.70;;;21.60;55.40;;;;;;8426925;28;20036;-56
2023/06/06 03:22:03;;;;;;;1.40;1.00;;;21.60;55.40;;;;;;8426580;28;20028;-56
2023/06/06 03:26:04;;;;;;;1.42;0.80;;;21.60;55.40;;;;;;8426814;28;20077;-56
2023/06/06 03:30:06;;;;;;;0.90;0.80;;;21.60;55.40;;;;;;8426267;28;20768;-56
2023/06/06 03:34:07;;;;;;;0.73;0.63;;;21.60;55.40;;;;;;8426286;28;20024;-56
2023/06/06 03:38:08;;;;;;;2.28;0.80;;;21.60;55.40;;;;;;8430188;28;20115;-56
2023/06/06 03:42:09;;;;;;;0.98;0.60;;;21.60;55.40;;;;;;8433735;28;20024;-57
2023/06/06 03:46:10;;;;;;;0.95;0.80;;;21.60;55.40;;;;;;8433067;28;20028;-56
2023/06/06 03:50:11;;;;;;;1.30;0.93;;;21.60;55.40;;;;;;8433013;28;20397;-56
2023/06/06 03:54:11;;;;;;;1.45;1.10;;;21.60;55.40;;;;;;8433040;28;20032;-56
2023/06/06 03:58:16;;;;;;;0.77;0.75;;;21.60;55.40;;;;;;8432750;28;20077;-56
2023/06/06 04:02:17;;;;;;;1.60;0.93;;;21.60;55.40;;;;;;8432616;28;20097;-57
2023/06/06 04:06:17;;;;;;;;;;;21.60;55.40;;;;;;8432850;28;20044;-56
2023/06/06 04:10:19;;;;;;;1.10;0.90;;;21.60;55.40;;;;;;8432500;28;19911;-56
2023/06/06 04:14:19;;;;;;;1.60;1.30;;;21.60;55.40;;;;;;8431918;28;20036;-56
2023/06/06 04:18:20;;;;;;;1.23;0.90;;;21.60;55.40;;;;;;8432085;28;20076;-56
2023/06/06 04:22:25;;;;;;;0.90;0.80;;;21.60;55.40;;;;;;8431795;28;20025;-56
2023/06/06 04:26:31;;;;;;;1.33;1.00;;;21.60;55.40;;;;;;8431837;28;20435;-56
2023/06/06 04:30:32;;;;;;;1.90;0.80;;;21.60;55.40;;;;;;8431546;28;20036;-56
2023/06/06 04:34:35;;;;;;;1.90;0.50;;;21.70;55.80;;;;;;8431620;28;20028;-56
2023/06/06 04:38:37;;;;;;;1.10;0.90;;;21.70;55.10;;;;;;8431153;28;20101;-56
2023/06/06 04:42:37;;;;;;;0.95;0.85;;;21.70;55.00;;;;;;8431566;28;20028;-56
2023/06/06 04:46:40;;;;;;;1.20;0.88;;;21.70;55.00;;;;;;8431288;28;20111;-56
2023/06/06 04:50:42;;;;;;;1.80;0.93;;;21.70;55.00;;;;;;8429788;28;20653;-56
2023/06/06 04:54:42;;;;;;;;;;;21.70;55.00;;;;;;8431124;28;20031;-56
2023/06/06 04:58:45;;;;;;;2.97;0.80;;;21.70;55.00;;;;;;8430808;28;20468;-57
2023/06/06 05:02:48;;;;;;;0.98;0.88;;;21.70;55.10;;;;;;8430465;28;20717;-56
2023/06/06 05:06:49;;;;;;;0.57;0.57;;;21.70;55.10;;;;;;8430416;28;20383;-56
2023/06/06 05:10:49;;;;;;;0.88;0.80;;;21.70;55.10;;;;;;8430615;28;20086;-56
2023/06/06 05:14:50;;;;;;;0.60;0.60;;;21.70;55.10;;;;;;8430155;28;20036;-56
2023/06/06 05:18:51;;;;;;;2.55;1.00;;;21.60;55.00;;;;;;8430457;28;20036;-56
2023/06/06 05:22:52;;;;;;;0.88;0.60;;;21.60;55.10;;;;;;8429926;28;20024;-56
2023/06/06 05:26:52;;;;;;;0.80;0.80;;;21.70;55.10;;;;;;8429923;28;20036;-57
2023/06/06 05:30:53;;;;;;;2.33;0.80;;;21.70;55.10;;;;;;8429970;28;20611;-57
2023/06/06 05:34:53;;;;;;;0.73;0.70;;;21.70;55.20;;;;;;8430053;28;20058;-56
2023/06/06 05:38:54;;;;;;;1.75;0.60;;;21.70;55.20;;;;;;8429564;28;20032;-56
2023/06/06 05:42:55;;;;;;;1.13;0.88;;;21.70;55.20;;;;;;8429824;28;20020;-56
2023/06/06 05:46:55;;;;;;;1.02;0.80;;;21.60;55.10;;;;;;8429148;28;20032;-56
2023/06/06 05:50:57;;;;;;;1.92;1.08;;;21.70;55.20;;;;;;8429423;28;20456;-56
2023/06/06 05:55:03;;;;;;;1.95;0.75;;;21.70;55.10;;;;;;8428897;28;20032;-56
2023/06/06 05:59:03;;;;;;;0.70;0.70;;;21.60;55.10;;;;;;8428242;28;20035;-56
2023/06/06 06:03:04;;;;;;;0.98;0.80;;;21.60;55.10;;;;;;8429056;28;20036;-56
2023/06/06 06:07:06;;;;;;;0.77;0.70;;;21.60;55.10;;;;;;8428726;28;20070;-56
2023/06/06 06:11:08;;;;;;;1.35;0.73;;;21.70;55.10;;;;;;8428567;28;20059;-56
2023/06/06 06:15:10;;;;;;;1.50;1.00;;;21.70;55.00;;;;;;8410320;28;20120;-56
2023/06/06 06:19:11;;;;;;;1.23;0.80;;;21.70;55.00;;;;;;8427981;28;20036;-56
2023/06/06 06:23:11;;;;;;;4.05;0.82;;;21.70;55.00;;;;;;8428014;28;20024;-56
2023/06/06 06:27:12;;;;;;;0.70;0.70;;;21.70;55.00;;;;;;8428259;28;20523;-56
2023/06/06 06:31:13;;;;;;;0.63;0.60;;;21.70;55.00;;;;;;8427788;28;20078;-56
2023/06/06 06:35:14;;;;;;;0.80;0.80;;;21.70;55.00;;;;;;8427925;28;20032;-56
2023/06/06 06:39:18;;;;;;;1.23;0.68;;;21.70;55.00;;;;;;8427990;28;20486;-56
2023/06/06 06:43:19;;;;;;;0.75;0.75;;;21.70;55.00;;;;;;8427497;28;20036;-56
2023/06/06 06:47:20;;;;;;;1.23;0.82;;;21.70;55.00;;;;;;8409280;28;20059;-56
2023/06/06 06:51:21;;;;;;;1.73;0.90;;;21.70;55.00;;;;;;8427484;28;20036;-56
2023/06/06 06:55:23;;;;;;;0.70;0.70;;;21.70;55.10;;;;;;8427203;28;20487;-56
2023/06/06 06:59:24;;;;;;;0.73;0.70;;;21.70;55.10;;;;;;8427448;28;20135;-56
2023/06/06 07:03:25;;;;;;;1.05;0.80;;;21.60;55.10;;;;;;8427225;28;20035;-56
2023/06/06 07:07:25;;;;;;;0.52;0.52;;;21.60;55.10;;;;;;8426630;28;20040;-56
2023/06/06 07:11:26;;;;;;;0.63;0.63;;;21.70;55.70;;;;;;8426592;28;20054;-58
2023/06/06 07:15:27;;;;;;;;;;;21.60;55.10;;;;;;8443237;28;20443;-56
2023/06/06 07:19:28;;;;;;;1.05;0.90;;;21.70;55.20;;;;;;8426785;28;19904;-56
2023/06/06 07:23:29;;;;;;;1.30;0.80;;;21.60;55.10;;;;;;8426624;28;20040;-56
2023/06/06 07:27:35;;;;;;;1.23;0.50;;;21.60;55.10;;;;;;8442216;28;20052;-56
2023/06/06 07:31:36;;;;;;;1.02;0.80;;;21.60;55.10;;;;;;8426519;28;20035;-56
2023/06/06 07:35:37;;;;;;;0.70;0.70;;;21.60;55.20;;;;;;8426245;28;20020;-56
2023/06/06 07:39:39;;;;;;;1.10;0.77;;;21.60;55.20;;;;;;8426641;28;20031;-56
2023/06/06 07:43:39;;;;;;;0.70;0.70;;;21.60;55.20;;;;;;8426422;28;20458;-56
2023/06/06 07:47:41;;;;;;;1.00;0.60;;;21.60;55.20;;;;;;8426354;28;20091;-56
2023/06/06 07:51:42;;;;;;;0.90;0.80;;;21.60;55.20;;;;;;8426226;28;20024;-56
2023/06/06 07:55:43;;;;;;;0.80;0.73;;;21.60;55.20;;;;;;8426093;28;20115;-56
2023/06/06 07:59:44;;;;;;;0.60;0.60;;;21.60;55.20;;;;;;8426002;28;20034;-56
2023/06/06 08:03:44;;;;;;;0.75;0.75;;;21.60;55.20;;;;;;8426060;28;20024;-56
2023/06/06 08:07:45;;;;;;;0.73;0.70;;;21.60;55.20;;;;;;8425961;28;20048;-56
2023/06/06 08:11:46;;;;;;;0.88;0.77;;;21.60;55.20;;;;;;8426724;28;20111;-56
2023/06/06 08:15:46;;;;;;;1.00;0.90;;;21.60;55.20;;;;;;8425648;28;20089;-56
2023/06/06 08:19:47;;;;;;;0.93;0.65;;;21.60;55.20;;;;;;8426002;28;20455;-56
2023/06/06 08:23:48;;;;;;;0.93;0.77;;;21.60;55.20;;;;;;8428479;28;20054;-56
2023/06/06 08:27:48;;;;;;;1.00;0.90;;;21.60;55.20;;;;;;8431929;28;20500;-56
2023/06/06 08:31:50;;;;;;;0.60;0.60;;;21.60;55.20;;;;;;8431972;28;20032;-57
2023/06/06 08:35:51;;;;;;;1.02;0.60;;;21.60;55.20;;;;;;8431405;28;20034;-56
2023/06/06 08:39:51;;;;;;;0.63;0.55;;;21.60;55.30;;;;;;8432079;28;20028;-56
2023/06/06 08:43:53;;;;;;;0.90;0.80;;;21.60;55.30;;;;;;8431022;28;20492;-56
2023/06/06 08:47:54;;;;;;;1.02;0.60;;;21.60;55.30;;;;;;8431350;28;20031;-56
2023/06/06 08:51:57;;;;;;;0.93;0.68;;;21.60;55.30;;;;;;8431172;28;20035;-56
2023/06/06 08:55:58;;;;;;;0.80;0.80;;;21.60;55.30;;;;;;8430884;28;20024;-56
2023/06/06 09:00:00;;;;;;;1.13;0.93;;;21.60;55.30;;;;;;8431037;28;20035;-56
2023/06/06 09:04:01;;;;;;;1.17;0.80;;;21.60;55.30;;;;;;8412431;28;20125;-56
2023/06/06 09:08:02;;;;;;;0.60;0.60;;;21.60;55.30;;;;;;8430482;28;20051;-56
2023/06/06 09:12:03;;;;;;;0.80;0.70;;;21.60;55.30;;;;;;8431090;28;20034;-56
2023/06/06 09:16:04;;;;;;;1.00;0.90;;;21.60;55.20;;;;;;8430336;28;20036;-56
2023/06/06 09:20:13;;;;;;;0.80;0.80;;;21.60;55.20;;;;;;8430325;28;20111;-56
2023/06/06 09:24:16;;;;;;;1.45;0.82;;;21.60;55.30;;;;;;8412079;28;20024;-56
2023/06/06 09:28:18;;;;;;;0.90;0.60;;;21.50;55.20;;;;;;8430005;28;20032;-56
2023/06/06 09:32:29;;;;;;;0.57;0.57;;;21.60;55.30;;;;;;8430052;28;20036;-57
2023/06/06 09:36:31;;;;;;;1.25;0.60;;;21.60;55.20;;;;;;8429190;28;20024;-55
2023/06/06 09:40:32;;;;;;;0.70;0.70;;;21.60;55.30;;;;;;8429767;28;20024;-57
2023/06/06 09:44:32;;;;;;;0.77;0.60;;;21.60;55.20;;;;;;8429676;28;20470;-56
2023/06/06 09:48:33;;;;;;;0.77;0.70;;;21.60;55.20;;;;;;8429276;28;20145;-56
2023/06/06 09:52:33;;;;;;;0.80;0.80;;;21.60;55.20;;;;;;8429290;28;20154;-56
2023/06/06 09:56:39;;;;;;;1.08;0.95;;;21.60;55.20;;;;;;8410953;28;20451;-56
2023/06/06 10:00:41;;;;;;;0.75;0.75;;;21.60;55.20;;;;;;8428880;28;20028;-56
2023/06/06 10:04:42;;;;;;;0.70;0.70;;;21.60;55.20;;;;;;8428955;28;20044;-56
2023/06/06 10:08:45;;;;;;;0.70;0.70;;;21.60;55.20;;;;;;8428694;28;20680;-56
2023/06/06 10:12:47;;;;;;;1.00;0.73;;;21.60;55.20;;;;;;8428840;28;20036;-56
2023/06/06 10:16:48;;;;;;;0.75;0.75;;;21.60;55.20;;;;;;8428191;28;20089;-56
2023/06/06 10:20:49;;;;;;;0.43;0.43;;;21.50;55.20;;;;;;8410174;28;20028;-56
2023/06/06 10:24:49;;;;;;;0.70;0.65;;;21.50;55.20;;;;;;8428184;28;20024;-56
2023/06/06 10:29:01;;;;;;;0.80;0.65;;;21.60;55.20;;;;;;8428092;28;20137;-56
2023/06/06 10:33:10;;;;;;;0.70;0.63;;;21.60;55.30;;;;;;8409734;28;20089;-56
2023/06/06 10:37:15;;;;;;;0.63;0.60;;;21.60;55.20;;;;;;8443512;28;20024;-56
2023/06/06 10:41:16;;;;;;;0.50;0.50;;;21.50;55.20;;;;;;8427976;28;20024;-56
2023/06/06 10:45:43;;;;;;;0.63;0.60;;;21.60;55.20;;;;;;8427100;28;20063;-56
2023/06/06 10:50:05;;;;;;;1.02;0.60;;;21.60;55.20;;;;;;8427089;28;20040;-56
2023/06/06 10:54:17;;;;;;;0.80;0.75;;;21.60;55.20;;;;;;8427203;28;20028;-56
2023/06/06 10:58:23;;;;;;;1.30;1.20;;;21.60;55.20;;;;;;8427044;28;20032;-56
2023/06/06 11:02:33;;;;;;;0.70;0.50;;;21.60;55.20;;;;;;8427331;28;20028;-56
2023/06/06 11:06:34;;;;;;;0.70;0.70;;;21.50;55.10;;;;;;8426866;28;20082;-56
2023/06/06 11:10:46;;;;;;;;;;;21.60;55.20;;;;;;8427699;28;20059;-56
2023/06/06 11:15:05;;;;;;;1.10;0.75;;;21.60;55.20;;;;;;8408904;28;19912;-56
2023/06/06 11:19:09;;;;;;;1.02;0.57;;;21.60;55.20;;;;;;8427019;28;20118;-56
2023/06/06 11:23:11;;;;;;;0.80;0.60;;;21.60;55.20;;;;;;8426576;28;20039;-56
2023/06/06 11:27:12;;;;;;;0.70;0.63;;;21.60;55.10;;;;;;8408658;28;20032;-56
2023/06/06 11:31:16;;;;;;;0.70;0.70;;;21.60;55.10;;;;;;8426387;28;20060;-56
2023/06/06 11:35:18;;;;;;;0.52;0.52;;;21.60;55.20;;;;;;8426520;28;20035;-56
2023/06/06 11:39:21;;;;;;;0.70;0.63;;;21.60;55.10;;;;;;8426714;28;20032;-57
2023/06/06 11:43:22;;;;;;;0.65;0.65;;;21.60;55.10;;;;;;8426442;28;20017;-56
2023/06/06 11:47:33;;;;;;;0.45;0.40;;;21.60;55.10;;;;;;8426401;28;20802;-56
2023/06/06 11:51:33;;;;;;;0.65;0.65;;;21.60;55.20;;;;;;8426081;28;20416;-56
2023/06/06 11:55:37;;;;;;;0.82;0.55;;;21.60;55.10;;;;;;8426216;28;20102;-56
2023/06/06 11:59:38;;;;;;;0.80;0.80;;;21.60;55.20;;;;;;8430539;28;20050;-56
2023/06/06 12:03:40;;;;;;;0.82;0.63;;;21.60;55.10;;;;;;8432695;28;20036;-56
2023/06/06 12:07:41;;;;;;;0.57;0.57;;;21.60;55.10;;;;;;8432600;28;20062;-56
2023/06/06 12:11:54;;;;;;;0.70;0.70;;;21.60;55.10;;;;;;8432373;28;20397;-56
2023/06/06 12:15:54;;;;;;;0.70;0.70;;;21.60;55.10;;;;;;8432214;28;20028;-56
2023/06/06 12:19:56;;;;;;;0.77;0.77;;;21.60;55.10;;;;;;8432181;28;20031;-56
2023/06/06 12:24:15;;;;;;;0.80;0.80;;;21.60;55.10;;;;;;8431879;28;20120;-56
2023/06/06 12:28:16;;;;;;;0.85;0.68;;;21.60;55.10;;;;;;8431687;28;20598;-56
2023/06/06 12:32:21;;;;;;;0.73;0.70;;;21.60;55.60;;;;;;8432039;28;20508;-56
2023/06/06 12:36:25;;;;;;;0.60;0.60;;;21.60;55.10;;;;;;8431291;28;20060;-56
2023/06/06 12:40:36;;;;;;;0.80;0.70;;;21.60;55.10;;;;;;8431968;28;20363;-56
2023/06/06 12:44:36;;;;;;;;;;;21.60;55.10;;;;;;8431964;28;20553;-56
2023/06/06 12:48:37;;;;;;;0.60;0.60;;;21.60;55.10;;;;;;8431351;28;20277;-56
2023/06/06 12:52:38;;;;;;;0.57;0.50;;;21.60;55.00;;;;;;8412849;28;20366;-56
2023/06/06 12:56:39;;;;;;;1.30;0.60;;;21.60;55.10;;;;;;8431177;28;20032;-56
2023/06/06 13:00:40;;;;;;;0.70;0.65;;;21.70;55.10;;;;;;8430765;28;20366;-56
2023/06/06 13:04:42;;;;;;;0.60;0.60;;;21.60;55.00;;;;;;8430853;28;20028;-56
2023/06/06 13:08:42;;;;;;;0.63;0.63;;;21.60;55.10;;;;;;8430019;28;20054;-56
2023/06/06 13:12:44;;;;;;;1.00;0.70;;;21.60;55.00;;;;;;8430450;28;20105;-56
2023/06/06 13:16:45;;;;;;;1.08;0.90;;;21.60;55.00;;;;;;8431293;28;20051;-56
2023/06/06 13:20:46;;;;;;;0.52;0.52;;;21.60;55.00;;;;;;8430222;28;20040;-56
2023/06/06 13:24:46;;;;;;;0.60;0.60;;;21.60;55.00;;;;;;8430124;28;20409;-56
2023/06/06 13:28:47;;;;;;;0.60;0.60;;;21.70;55.10;;;;;;8430233;28;20081;-56
2023/06/06 13:32:48;;;;;;;0.70;0.60;;;21.60;55.00;;;;;;8430084;28;20036;-56
2023/06/06 13:36:48;;;;;;;0.70;0.70;;;21.60;55.00;;;;;;8429807;28;20496;-56
2023/06/06 13:40:50;;;;;;;0.50;0.47;;;21.60;55.10;;;;;;8429711;28;20032;-56
2023/06/06 13:44:51;;;;;;;0.70;0.70;;;21.70;55.10;;;;;;8429662;28;20016;-56
2023/06/06 13:48:53;;;;;;;0.60;0.60;;;21.70;55.00;;;;;;8429444;28;20020;-56
2023/06/06 13:52:54;;;;;;;1.50;1.40;;;21.60;55.00;;;;;;8429341;28;20024;-56
2023/06/06 13:56:59;;;;;;;0.60;0.60;;;21.60;55.00;;;;;;8429087;28;20020;-56
2023/06/06 14:01:00;;;;;;;0.60;0.60;;;21.70;55.00;;;;;;8428957;28;20035;-56
2023/06/06 14:05:01;;;;;;;0.60;0.60;;;21.70;55.00;;;;;;8428560;28;20039;-56
2023/06/06 14:09:02;;;;;;;0.70;0.70;;;21.70;55.00;;;;;;8428922;28;20043;-56
2023/06/06 14:13:03;;;;;;;0.68;0.63;;;21.70;55.00;;;;;;8429066;28;20032;-56
2023/06/06 14:17:04;;;;;;;0.50;0.50;;;21.60;54.90;;;;;;8428470;28;20043;-56
2023/06/06 14:21:19;;;;;;;0.77;0.70;;;21.70;55.00;;;;;;8428437;28;20529;-56
2023/06/06 14:25:21;;;;;;;0.63;0.63;;;21.60;54.90;;;;;;8428121;28;20469;-56
2023/06/06 14:29:22;;;;;;;0.65;0.63;;;21.60;54.90;;;;;;8428231;28;20108;-57
2023/06/06 14:33:23;;;;;;;0.85;0.70;;;21.60;54.90;;;;;;8428286;28;20477;-56
2023/06/06 14:37:24;;;;;;;0.63;0.63;;;21.70;54.90;;;;;;8427869;28;20378;-56
2023/06/06 14:41:25;;;;;;;0.80;0.80;;;21.70;54.90;;;;;;8427897;28;20405;-56
2023/06/06 14:45:26;;;;;;;0.93;0.70;;;21.70;54.90;;;;;;8427730;28;20371;-56
2023/06/06 14:49:27;;;;;;;0.82;0.70;;;21.70;54.90;;;;;;8427563;28;20032;-56
2023/06/06 14:53:27;;;;;;;0.70;0.70;;;21.70;54.90;;;;;;8427665;28;20028;-56
2023/06/06 14:57:28;;;;;;;0.60;0.60;;;21.70;54.90;;;;;;8427234;28;20036;-56
2023/06/06 15:01:28;;;;;;;0.70;0.70;;;21.70;54.90;;;;;;8427285;28;20540;-56
2023/06/06 15:05:29;;;;;;;0.60;0.60;;;21.70;54.90;;;;;;8426929;28;20052;-56
2023/06/06 15:09:35;;;;;;;0.85;0.70;;;21.60;54.90;;;;;;8427309;28;20024;-56
2023/06/06 15:13:35;;;;;;;0.68;0.60;;;21.60;54.90;;;;;;8408914;28;20036;-56
2023/06/06 15:17:36;;;;;;;0.70;0.70;;;21.70;54.90;;;;;;8426884;28;20088;-56
2023/06/06 15:21:38;;;;;;;0.60;0.60;;;21.70;55.00;;;;;;8426848;28;20028;-56
2023/06/06 15:25:39;;;;;;;0.60;0.60;;;21.70;55.00;;;;;;8426738;28;20031;-56
2023/06/06 15:29:43;;;;;;;0.70;0.70;;;21.70;54.90;;;;;;8426636;28;20040;-56
2023/06/06 15:33:44;;;;;;;0.70;0.70;;;21.70;54.90;;;;;;8425737;28;20028;-56
2023/06/06 15:37:44;;;;;;;1.10;0.82;;;21.70;54.90;;;;;;8408538;28;20039;-56
2023/06/06 15:41:45;;;;;;;0.63;0.55;;;21.60;54.90;;;;;;8427674;28;20064;-56
2023/06/06 15:45:46;;;;;;;0.70;0.60;;;21.70;54.90;;;;;;8426537;28;20036;-56
2023/06/06 15:49:46;;;;;;;0.70;0.70;;;21.60;54.90;;;;;;8425989;28;20077;-56
2023/06/06 15:53:47;;;;;;;0.60;0.60;;;21.70;54.90;;;;;;8426323;28;20051;-56
2023/06/06 15:57:47;;;;;;;1.23;0.73;;;21.60;54.90;;;;;;8426172;28;20103;-56
2023/06/06 16:01:48;;;;;;;0.68;0.68;;;21.70;54.90;;;;;;8407864;28;20028;-56
2023/06/06 16:05:49;;;;;;;0.52;0.52;;;21.60;54.90;;;;;;8426343;28;20123;-56
2023/06/06 16:09:50;;;;;;;0.60;0.60;;;21.60;54.90;;;;;;8426276;28;20077;-56
2023/06/06 16:13:51;;;;;;;;;;;21.60;54.90;;;;;;8426110;28;20071;-56
2023/06/06 16:17:51;;;;;;;0.60;0.60;;;21.60;54.80;;;;;;8408070;28;19908;-56
2023/06/06 16:21:52;;;;;;;0.65;0.65;;;21.70;54.90;;;;;;8425888;28;20035;-56
2023/06/06 16:25:52;;;;;;;0.63;0.63;;;21.60;54.90;;;;;;8425404;28;20107;-56
2023/06/06 16:29:53;;;;;;;0.68;0.68;;;21.60;54.90;;;;;;8426314;28;20180;-56
2023/06/06 16:33:54;;;;;;;0.50;0.50;;;21.70;54.90;;;;;;8425582;28;20016;-56
2023/06/06 16:37:55;;;;;;;0.93;0.80;;;21.70;55.00;;;;;;8407409;28;20024;-56
2023/06/06 16:41:56;;;;;;;0.45;0.45;;;21.60;54.90;;;;;;8426032;28;20066;-56
2023/06/06 16:45:56;;;;;;;0.63;0.63;;;21.60;54.90;;;;;;8428186;28;20039;-56
2023/06/06 16:49:57;;;;;;;0.50;0.50;;;21.60;54.90;;;;;;8431490;28;20028;-56
2023/06/06 16:53:57;;;;;;;0.50;0.50;;;21.60;54.90;;;;;;8431373;28;20032;-56
2023/06/06 16:57:58;;;;;;;0.60;0.60;;;21.60;54.90;;;;;;8430946;28;20474;-56
2023/06/06 17:01:59;;;;;;;0.75;0.50;;;21.60;54.90;;;;;;8430954;28;20030;-56
2023/06/06 17:06:00;;;;;;;0.80;0.63;;;21.60;54.90;;;;;;8431072;28;20397;-56
2023/06/06 17:10:01;;;;;;;0.60;0.60;;;21.60;54.90;;;;;;8430615;28;20027;-56
2023/06/06 17:14:02;;;;;;;0.70;0.70;;;21.60;54.90;;;;;;8430538;28;20020;-56
2023/06/06 17:18:02;;;;;;;0.45;0.45;;;21.70;55.00;;;;;;8430309;28;20028;-56
2023/06/06 17:22:03;;;;;;;0.75;0.75;;;21.60;54.90;;;;;;8430242;28;20035;-56
2023/06/06 17:26:04;;;;;;;0.50;0.50;;;21.60;54.90;;;;;;8430235;28;20025;-56
2023/06/06 17:30:07;;;;;;;1.13;0.50;;;21.60;54.90;;;;;;8429547;28;20035;-56
2023/06/06 17:34:07;;;;;;;0.65;0.65;;;21.60;54.90;;;;;;8429649;28;20081;-56
2023/06/06 17:38:08;;;;;;;0.70;0.70;;;21.60;54.90;;;;;;8429657;28;20537;-57
2023/06/06 17:42:09;;;;;;;0.40;0.40;;;21.70;54.90;;;;;;8429927;28;20030;-56
2023/06/06 17:46:09;;;;;;;0.55;0.55;;;21.70;54.90;;;;;;8429212;28;20027;-56
2023/06/06 17:50:10;;;;;;;0.47;0.47;;;21.60;54.90;;;;;;8429155;28;20385;-56
2023/06/06 17:54:11;;;;;;;0.60;0.60;;;21.60;54.90;;;;;;8428798;28;20078;-56
2023/06/06 17:58:12;;;;;;;1.00;0.60;;;21.60;54.90;;;;;;8428034;28;20024;-56
2023/06/06 18:02:12;;;;;;;0.50;0.50;;;21.70;55.00;;;;;;8433363;27;20055;-56
2023/06/06 18:06:19;;;;;;;0.60;0.60;;;21.70;54.90;;;;;;8468397;27;20385;-56
2023/06/06 18:10:20;;;;;;;0.63;0.63;;;21.70;54.90;;;;;;8476140;27;20016;-56
2023/06/06 18:14:22;;;;;;;0.75;0.60;;;21.70;54.90;;;;;;8428656;28;20029;-56
2023/06/06 18:18:22;;;;;;;0.65;0.65;;;21.60;54.90;;;;;;8441043;27;20074;-59
2023/06/06 18:22:23;;;;;;;6.65;1.30;;;21.70;55.40;;;;;;8457258;27;20046;-58
2023/06/06 18:26:24;;;;;;;4.03;1.00;;;21.80;56.60;;;;;;8463213;27;20054;-57
2023/06/06 18:30:24;;;;;;;3.15;1.35;;;21.90;55.70;;;;;;8466003;27;20044;-60
2023/06/06 18:34:25;;;;;;;6.25;1.70;;;22.00;55.50;;;;;;8466555;27;20031;-57
2023/06/06 18:38:26;;;;;;;5.25;1.90;;;22.00;55.10;;;;;;8467083;27;20118;-59
2023/06/06 18:42:27;;;;;;;7.18;2.30;;;22.10;55.60;;;;;;8455112;27;20565;-56
2023/06/06 18:46:27;;;;;;;7.13;2.60;;;22.20;55.30;;;;;;8471320;27;20114;-57
2023/06/06 18:50:31;;;;;;;16.23;3.05;;;22.20;53.50;;;;;;8475702;27;20027;-56
2023/06/06 18:54:32;;;;;;;10.02;2.90;;;22.20;53.80;;;;;;8463414;27;20086;-56
2023/06/06 18:58:32;;;;;;;10.35;3.55;;;22.20;53.60;;;;;;8468560;27;20036;-58
2023/06/06 19:02:35;;;;;;;13.20;4.43;;;22.30;53.60;;;;;;8468807;27;20031;-57
2023/06/06 19:06:37;;;;;;;8.50;4.00;;;22.30;51.50;;;;;;8464431;27;20040;-56
2023/06/06 19:10:37;;;;;;;9.68;4.18;;;22.30;52.60;;;;;;8446922;27;20032;-57
2023/06/06 19:14:38;;;;;;;11.20;4.57;;;22.30;51.60;;;;;;8459505;27;20035;-52
2023/06/06 19:18:38;;;;;;;13.40;4.38;;;22.30;51.80;;;;;;8465941;27;20047;-56
2023/06/06 19:22:39;;;;;;;6.32;4.53;;;22.30;51.50;;;;;;8461901;27;20037;-57
2023/06/06 19:26:40;;;;;;;13.60;4.85;;;22.30;50.40;;;;;;8466927;27;20036;-58
2023/06/06 19:30:41;;;;;;;7.80;4.65;;;22.20;50.80;;;;;;8468088;27;20035;-57
2023/06/06 19:34:41;;;;;;;10.13;4.15;;;22.10;50.30;;;;;;8464243;28;20031;-57
2023/06/06 19:38:42;;;;;;;16.38;5.22;;;22.10;50.80;;;;;;8462202;28;20081;-54
2023/06/06 19:42:43;;;;;;;10.38;4.88;;;22.10;52.80;;;;;;8443956;28;20036;-54
2023/06/06 19:46:43;;;;;;;10.07;4.68;;;22.20;52.90;;;;;;8461989;27;20294;-55
2023/06/06 19:50:44;;;;;;;12.70;5.63;;;22.30;53.30;;;;;;8464194;27;20089;-55
2023/06/06 19:54:45;;;;;;;;;;;22.30;53.50;;;;;;8443552;27;20046;-54
2023/06/06 19:58:46;;;;;;;23.17;8.63;;;22.20;52.80;;;;;;8425516;28;19920;-53
2023/06/06 20:02:46;;;;;;;24.42;12.48;;;22.30;53.40;;;;;;8425349;28;20043;-56
2023/06/06 20:06:47;;;;;;;43.28;20.48;;;22.30;53.10;;;;;;8424373;28;20075;-56
2023/06/06 20:10:48;;;;;;;58.10;32.25;;;22.30;53.20;;;;;;8426765;28;20058;-58
2023/06/06 20:14:48;;;;;;;76.40;36.08;;;22.30;53.20;;;;;;8423618;28;20032;-58
2023/06/06 20:18:49;;;;;;;66.78;34.22;;;22.30;54.90;;;;;;8426345;28;20039;-55
2023/06/06 20:22:50;;;;;;;69.60;36.90;;;22.30;54.30;;;;;;8432865;27;20357;-56
2023/06/06 20:26:51;;;;;;;77.05;40.35;;;22.30;54.20;;;;;;8430554;27;20031;-58
2023/06/06 20:30:51;;;;;;;88.75;47.72;;;22.40;54.20;;;;;;8432747;27;20162;-58
2023/06/06 20:34:52;;;;;;;93.30;49.45;;;22.30;54.50;;;;;;8431277;28;20036;-58
2023/06/06 20:38:52;;;;;;;85.57;48.10;;;22.40;54.50;;;;;;8430031;27;20107;-57
2023/06/06 20:42:53;;;;;;;114.90;58.28;;;22.30;54.90;;;;;;8432901;27;20039;-58
2023/06/06 20:46:55;;;;;;;105.00;56.80;;;22.40;54.90;;;;;;8431956;27;20039;-57
2023/06/06 20:50:56;;;;;;;118.00;57.97;;;22.50;55.00;;;;;;8432336;27;20140;-56
2023/06/06 20:54:57;;;;;;;106.03;59.60;;;22.50;54.80;;;;;;8431175;27;20039;-56
2023/06/06 20:58:58;;;;;;;107.32;59.38;;;22.60;55.00;;;;;;8430134;27;20039;-58
2023/06/06 21:02:59;;;;;;;113.07;64.82;;;22.50;55.10;;;;;;8432449;27;20043;-57